Terminal Aerodrome Forecast
Issued by NWS Mt. Holly, NJ

Home | Current Version | Previous Version | Text Only | Print | Product List | Glossary On
Versions: 1 2 3 4 5 6 7 8 9 10 11 12 13 14 15 16 17 18
369
FTUS41 KPHI 230243 AAA
TAFTTN
TAF AMD
KTTN 230243Z 2303/2324 VRB03KT P6SM FEW003 OVC008
      TEMPO 2303/2306 3SM BR
     FM231200 03005KT P6SM SCT008 BKN250
     FM231500 08005KT P6SM OVC150
     FM232000 VRB03KT P6SM BKN040 OVC150=

USA.gov is the U.S. government's official web portal to all federal, state and local government web resources and services.